createdAt,value
2019-02-12T00:01:02.909Z,3.40
2019-02-12T00:03:32.119Z,3.50
2019-02-12T00:06:01.479Z,3.40
2019-02-12T00:08:30.717Z,3.40
2019-02-12T00:11:00.234Z,3.40
2019-02-12T00:13:29.490Z,3.60
2019-02-12T00:15:58.677Z,3.60
2019-02-12T00:18:27.886Z,3.60
2019-02-12T00:20:57.057Z,3.70
2019-02-12T00:23:26.255Z,3.70
2019-02-12T00:25:55.460Z,3.70
2019-02-12T00:28:24.668Z,3.70
2019-02-12T00:30:53.883Z,3.80
2019-02-12T00:33:23.047Z,3.80
2019-02-12T00:35:52.229Z,3.80
2019-02-12T00:38:21.435Z,3.80
2019-02-12T00:40:50.637Z,3.70
2019-02-12T00:43:19.818Z,3.70
2019-02-12T00:45:49.069Z,3.70
2019-02-12T00:48:18.309Z,3.70
2019-02-12T00:50:47.499Z,3.70
2019-02-12T00:53:16.677Z,3.70
2019-02-12T00:55:45.928Z,3.70
2019-02-12T00:58:15.069Z,3.80
2019-02-12T01:00:44.229Z,3.70
2019-02-12T01:03:13.392Z,3.70
2019-02-12T01:05:42.572Z,3.80
2019-02-12T01:08:11.777Z,3.80
2019-02-12T01:10:40.917Z,3.80
2019-02-12T01:13:10.189Z,3.90
2019-02-12T01:15:39.432Z,3.90
2019-02-12T01:18:08.589Z,3.90
2019-02-12T01:20:37.975Z,4.00
2019-02-12T01:23:14.824Z,4.00
2019-02-12T01:25:44.002Z,4.00
2019-02-12T01:28:13.277Z,4.00
2019-02-12T01:30:42.460Z,4.00
2019-02-12T01:33:12.971Z,4.00
2019-02-12T01:35:42.180Z,4.00
2019-02-12T01:38:11.437Z,4.00
2019-02-12T01:40:40.775Z,4.00
2019-02-12T01:43:09.923Z,4.10
2019-02-12T01:45:39.099Z,4.10
2019-02-12T01:48:08.425Z,4.10
2019-02-12T01:50:37.595Z,4.10
2019-02-12T01:53:06.869Z,4.00
2019-02-12T01:55:36.101Z,4.10
2019-02-12T01:58:05.287Z,4.00
2019-02-12T02:00:34.573Z,4.00
2019-02-12T02:03:03.801Z,4.00
2019-02-12T02:05:32.935Z,4.00
2019-02-12T02:08:02.483Z,3.90
2019-02-12T02:10:31.656Z,3.90
2019-02-12T02:13:00.842Z,3.90
2019-02-12T02:15:30.093Z,3.90
2019-02-12T02:17:59.412Z,3.80
2019-02-12T02:20:28.697Z,3.90
2019-02-12T02:22:57.871Z,3.90
2019-02-12T02:25:27.083Z,4.00
2019-02-12T02:27:56.231Z,3.90
2019-02-12T02:30:25.428Z,3.90
2019-02-12T02:32:54.645Z,3.90
2019-02-12T02:35:24.014Z,3.80
2019-02-12T02:37:53.121Z,3.70
2019-02-12T02:40:22.284Z,3.60
2019-02-12T02:42:51.459Z,3.60
2019-02-12T02:45:20.647Z,3.60
2019-02-12T02:47:49.794Z,3.60
2019-02-12T02:50:19.015Z,3.50
2019-02-12T02:52:48.247Z,3.40
2019-02-12T02:55:17.415Z,3.40
2019-02-12T02:57:46.627Z,3.40
2019-02-12T03:00:15.786Z,3.30
2019-02-12T03:02:45.024Z,3.30
2019-02-12T03:05:14.214Z,3.40
2019-02-12T03:07:43.370Z,3.40
2019-02-12T03:10:12.845Z,3.40
2019-02-12T03:12:42.150Z,3.30
2019-02-12T03:15:11.609Z,3.30
2019-02-12T03:17:40.731Z,3.30
2019-02-12T03:20:10.956Z,3.40
2019-02-12T03:22:40.167Z,3.40
2019-02-12T03:25:09.580Z,3.40
2019-02-12T03:27:38.865Z,3.40
2019-02-12T03:30:08.873Z,3.40
2019-02-12T03:32:38.271Z,3.40
2019-02-12T03:35:07.926Z,3.50
2019-02-12T03:37:37.152Z,3.50
2019-02-12T03:40:07.292Z,3.50
2019-02-12T03:42:36.435Z,3.40
2019-02-12T03:45:05.960Z,3.40
2019-02-12T03:47:35.166Z,3.30
2019-02-12T03:50:04.567Z,3.20
2019-02-12T03:52:33.714Z,3.10
2019-02-12T03:55:02.860Z,3.00
2019-02-12T03:57:32.190Z,3.00
2019-02-12T04:00:01.605Z,3.00
2019-02-12T04:02:30.790Z,3.00
2019-02-12T04:04:59.956Z,3.00
2019-02-12T04:07:29.092Z,2.90
2019-02-12T04:09:58.284Z,2.80
2019-02-12T04:12:27.494Z,2.80
2019-02-12T04:14:56.695Z,2.80
2019-02-12T04:17:25.918Z,2.80
2019-02-12T04:19:55.480Z,2.70
2019-02-12T04:22:24.681Z,2.80
2019-02-12T04:24:56.226Z,2.80
2019-02-12T04:27:26.209Z,2.70
2019-02-12T04:29:55.358Z,2.70
2019-02-12T04:32:24.546Z,2.70
2019-02-12T04:34:53.715Z,2.70
2019-02-12T04:37:22.861Z,2.60
2019-02-12T04:39:51.965Z,2.60
2019-02-12T04:42:21.132Z,2.60
2019-02-12T04:44:50.378Z,2.80
2019-02-12T04:47:19.615Z,2.80
2019-02-12T04:49:48.765Z,2.90
2019-02-12T04:52:18.031Z,2.90
2019-02-12T04:54:47.143Z,2.90
2019-02-12T04:57:16.368Z,2.90
2019-02-12T04:59:45.549Z,2.80
2019-02-12T05:02:14.822Z,2.70
2019-02-12T05:04:44.013Z,2.70
2019-02-12T05:07:13.211Z,2.80
2019-02-12T05:09:43.896Z,3.00
2019-02-12T05:12:14.560Z,3.00
2019-02-12T05:14:43.698Z,2.90
2019-02-12T05:17:12.806Z,2.90
2019-02-12T05:19:41.964Z,2.90
2019-02-12T05:22:11.111Z,2.80
2019-02-12T05:24:40.306Z,2.70
2019-02-12T05:27:09.538Z,2.60
2019-02-12T05:29:38.620Z,2.50
2019-02-12T05:32:07.882Z,2.60
2019-02-12T05:34:37.099Z,2.50
2019-02-12T05:37:06.288Z,2.40
2019-02-12T05:39:35.405Z,2.40
2019-02-12T05:42:04.586Z,2.40
2019-02-12T05:44:33.802Z,2.50
2019-02-12T05:47:02.979Z,2.40
2019-02-12T05:49:32.143Z,2.50
2019-02-12T05:52:01.171Z,2.50
2019-02-12T05:54:30.280Z,2.50
2019-02-12T05:56:59.527Z,2.60
2019-02-12T05:59:28.685Z,2.50
2019-02-12T06:01:57.900Z,2.50
2019-02-12T06:04:27.067Z,2.60
2019-02-12T06:06:56.305Z,2.60
2019-02-12T06:09:25.515Z,2.60
2019-02-12T06:11:54.641Z,2.60
2019-02-12T06:14:23.779Z,2.60
2019-02-12T06:16:53.010Z,2.60
2019-02-12T06:19:22.237Z,2.50
2019-02-12T06:21:51.763Z,2.50
2019-02-12T06:24:20.906Z,2.40
2019-02-12T06:26:50.108Z,2.30
2019-02-12T06:29:19.363Z,2.30
2019-02-12T06:31:48.570Z,2.20
2019-02-12T06:34:18.172Z,2.30
2019-02-12T06:36:47.412Z,2.60
2019-02-12T06:39:16.647Z,2.50
2019-02-12T06:41:45.783Z,2.50
2019-02-12T06:44:15.051Z,2.60
2019-02-12T06:46:44.313Z,2.60
2019-02-12T06:49:13.742Z,2.60
2019-02-12T06:51:42.867Z,2.60
2019-02-12T06:54:15.014Z,2.50
2019-02-12T06:56:44.243Z,2.20
2019-02-12T06:59:13.767Z,2.10
2019-02-12T07:01:43.432Z,2.00
2019-02-12T07:04:21.487Z,2.00
2019-02-12T07:07:35.723Z,2.00
2019-02-12T07:10:18.853Z,2.20
2019-02-12T07:13:50.419Z,2.20
2019-02-12T07:17:06.341Z,2.30
2019-02-12T07:20:10.125Z,2.40
2019-02-12T07:23:24.774Z,2.50
2019-02-12T07:26:27.003Z,2.50
2019-02-12T07:29:23.760Z,2.60
2019-02-12T07:32:45.292Z,2.60
2019-02-12T07:35:57.320Z,2.60
2019-02-12T07:39:07.705Z,2.60
2019-02-12T07:42:12.851Z,2.70
2019-02-12T07:45:23.264Z,2.80
2019-02-12T07:48:28.310Z,3.00
2019-02-12T07:51:03.231Z,3.20
2019-02-12T07:54:28.630Z,3.30
2019-02-12T07:57:27.477Z,3.60
2019-02-12T08:00:32.635Z,3.80
2019-02-12T08:03:48.132Z,3.80
2019-02-12T08:06:54.273Z,3.90
2019-02-12T08:10:21.628Z,3.90
2019-02-12T08:13:27.906Z,3.90
2019-02-12T08:16:12.493Z,3.90
2019-02-12T08:19:25.275Z,3.70
2019-02-12T08:22:31.345Z,3.70
2019-02-12T08:25:55.146Z,3.60
2019-02-12T08:28:49.598Z,3.60
2019-02-12T08:31:37.177Z,3.60
2019-02-12T08:34:24.571Z,3.70
2019-02-12T08:37:38.302Z,3.80
2019-02-12T08:40:44.251Z,3.70
2019-02-12T08:43:54.489Z,3.80
2019-02-12T08:46:53.406Z,3.90
2019-02-12T08:49:53.581Z,4.00
2019-02-12T08:53:04.470Z,4.00
2019-02-12T08:56:11.033Z,3.80
2019-02-12T08:59:07.830Z,3.30
2019-02-12T09:01:59.822Z,3.40
2019-02-12T09:05:13.354Z,3.40
2019-02-12T09:07:58.776Z,3.50
2019-02-12T09:11:07.066Z,3.30
2019-02-12T09:13:51.346Z,3.30
2019-02-12T09:17:19.983Z,3.30
2019-02-12T09:20:45.608Z,3.40
2019-02-12T09:24:00.049Z,3.50
2019-02-12T09:26:59.569Z,3.70
2019-02-12T09:29:57.553Z,3.80
2019-02-12T09:33:25.575Z,3.80
2019-02-12T09:36:30.628Z,3.70
2019-02-12T09:39:30.638Z,3.90
2019-02-12T09:42:27.368Z,4.00
2019-02-12T09:45:29.015Z,3.90
2019-02-12T09:48:29.181Z,4.00
2019-02-12T09:51:37.114Z,4.00
2019-02-12T09:54:22.813Z,4.20
2019-02-12T09:57:29.059Z,4.30
2019-02-12T10:00:48.538Z,4.40
2019-02-12T10:04:03.760Z,4.40
2019-02-12T10:07:17.272Z,4.50
2019-02-12T10:10:11.630Z,4.70
2019-02-12T10:13:11.424Z,4.80
2019-02-12T10:16:09.060Z,4.80
2019-02-12T10:19:28.514Z,4.80
2019-02-12T10:22:31.076Z,5.00
2019-02-12T10:25:16.951Z,5.40
2019-02-12T10:27:58.696Z,5.70
2019-02-12T10:31:01.085Z,5.90
2019-02-12T10:33:30.392Z,6.30
2019-02-12T10:36:02.001Z,6.70
2019-02-12T10:38:33.370Z,6.70
2019-02-12T10:41:02.607Z,6.50
2019-02-12T10:43:31.955Z,6.40
2019-02-12T10:46:01.396Z,6.30
2019-02-12T10:48:32.326Z,6.20
2019-02-12T10:51:01.732Z,6.10
2019-02-12T10:53:33.541Z,6.20
2019-02-12T10:56:04.591Z,6.20
2019-02-12T10:58:34.753Z,6.30
2019-02-12T11:01:04.179Z,6.40
2019-02-12T11:03:33.465Z,6.50
2019-02-12T11:06:02.687Z,6.60
2019-02-12T11:08:33.453Z,6.70
2019-02-12T11:11:03.669Z,6.80
2019-02-12T11:13:33.345Z,7.00
2019-02-12T11:16:02.671Z,7.10
2019-02-12T11:18:34.972Z,6.90
2019-02-12T11:21:11.664Z,6.80
2019-02-12T11:23:35.629Z,6.80
2019-02-12T11:26:04.801Z,6.80
2019-02-12T11:28:34.043Z,6.80
2019-02-12T11:31:03.237Z,6.80
2019-02-12T11:33:32.493Z,6.80
2019-02-12T11:36:01.777Z,6.70
2019-02-12T11:38:30.987Z,6.80
2019-02-12T11:41:00.138Z,6.80
2019-02-12T11:43:29.584Z,6.70
2019-02-12T11:45:58.904Z,6.80
2019-02-12T11:48:28.250Z,6.70
2019-02-12T11:50:57.743Z,6.70
2019-02-12T11:53:28.086Z,6.80
2019-02-12T11:56:00.922Z,6.80
2019-02-12T11:58:31.630Z,7.00
2019-02-12T12:01:03.372Z,7.00
2019-02-12T12:03:32.680Z,7.00
2019-02-12T12:06:01.924Z,6.90
2019-02-12T12:11:33.364Z,6.80
2019-02-12T12:14:02.790Z,6.90
2019-02-12T12:16:32.148Z,7.00
2019-02-12T12:19:01.365Z,7.00
2019-02-12T12:21:30.654Z,7.10
2019-02-12T12:24:00.035Z,7.20
2019-02-12T12:26:29.336Z,7.30
2019-02-12T12:28:58.494Z,7.40
2019-02-12T12:31:27.738Z,7.50
2019-02-12T12:33:58.264Z,7.60
2019-02-12T12:36:27.605Z,7.70
2019-02-12T12:38:56.862Z,7.70
2019-02-12T12:41:26.032Z,7.80
2019-02-12T12:43:55.867Z,7.70
2019-02-12T12:46:25.280Z,7.80
2019-02-12T12:48:54.561Z,7.90
2019-02-12T12:51:23.821Z,7.90
2019-02-12T12:53:53.123Z,8.00
2019-02-12T12:56:22.465Z,7.90
2019-02-12T12:58:51.641Z,7.90
2019-02-12T13:01:20.891Z,7.90
2019-02-12T13:03:52.448Z,8.00
2019-02-12T13:06:23.209Z,8.00
2019-02-12T13:08:54.210Z,8.00
2019-02-12T13:11:26.626Z,8.00
2019-02-12T13:13:56.986Z,8.00
2019-02-12T13:16:27.998Z,8.10
2019-02-12T13:18:57.266Z,8.00
2019-02-12T13:21:26.768Z,8.00
2019-02-12T13:23:56.320Z,7.90
2019-02-12T13:26:25.488Z,7.90
2019-02-12T13:28:55.387Z,7.80
2019-02-12T13:31:26.676Z,7.70
2019-02-12T13:33:59.155Z,7.80
2019-02-12T13:36:28.563Z,7.90
2019-02-12T13:38:57.918Z,7.90
2019-02-12T13:41:27.880Z,8.00
2019-02-12T13:43:58.295Z,8.00
2019-02-12T13:46:28.194Z,8.10
2019-02-12T13:48:57.602Z,8.00
2019-02-12T13:51:27.184Z,8.00
2019-02-12T13:53:59.506Z,8.10
2019-02-12T13:56:30.217Z,8.10
2019-02-12T13:58:59.665Z,8.20
2019-02-12T14:01:31.093Z,8.20
2019-02-12T14:04:00.424Z,8.30
2019-02-12T14:06:29.711Z,8.30
2019-02-12T14:08:59.131Z,8.30
2019-02-12T14:11:28.373Z,8.30
2019-02-12T14:13:58.709Z,8.30
2019-02-12T14:16:28.034Z,8.30
2019-02-12T14:18:57.357Z,8.20
2019-02-12T14:21:26.589Z,8.20
2019-02-12T14:23:56.067Z,8.10
2019-02-12T14:26:25.269Z,8.00
2019-02-12T14:28:54.649Z,8.00
2019-02-12T14:31:25.984Z,8.00
2019-02-12T14:33:55.270Z,8.10
2019-02-12T14:36:28.411Z,8.10
2019-02-12T14:38:57.710Z,8.20
2019-02-12T14:41:27.091Z,8.10
2019-02-12T14:43:56.307Z,8.10
2019-02-12T14:46:25.512Z,8.10
2019-02-12T14:48:55.581Z,8.10
2019-02-12T14:51:25.245Z,8.10
2019-02-12T14:53:54.559Z,8.10
2019-02-12T14:56:27.243Z,8.10
2019-02-12T14:58:58.329Z,8.10
2019-02-12T15:01:27.663Z,8.10
2019-02-12T15:03:56.993Z,8.10
2019-02-12T15:06:26.519Z,8.10
2019-02-12T15:08:56.679Z,8.10
2019-02-12T15:11:27.281Z,8.00
2019-02-12T15:13:57.547Z,8.00
2019-02-12T15:16:28.281Z,7.90
2019-02-12T15:18:57.692Z,7.80
2019-02-12T15:21:27.083Z,7.80
2019-02-12T15:23:56.494Z,7.70
2019-02-12T15:26:27.291Z,7.70
2019-02-12T15:28:56.622Z,7.60
2019-02-12T15:31:26.014Z,7.60
2019-02-12T15:33:55.380Z,7.60
2019-02-12T15:36:24.664Z,7.60
2019-02-12T15:38:54.496Z,7.60
2019-02-12T15:41:24.279Z,7.60
2019-02-12T15:43:53.574Z,7.60
2019-02-12T15:46:23.284Z,7.50
2019-02-12T15:48:52.794Z,7.50
2019-02-12T15:51:23.719Z,7.50
2019-02-12T15:53:53.128Z,7.50
2019-02-12T15:56:22.318Z,7.40
2019-02-12T15:58:52.182Z,7.40
2019-02-12T16:01:24.210Z,7.40
2019-02-12T16:03:53.451Z,7.20
2019-02-12T16:06:22.762Z,7.20
2019-02-12T16:08:53.844Z,7.10
2019-02-12T16:11:24.028Z,7.10
2019-02-12T16:13:54.758Z,7.00
2019-02-12T16:16:24.959Z,7.00
2019-02-12T16:18:56.015Z,6.90
2019-02-12T16:21:25.242Z,7.80
2019-02-12T16:23:58.191Z,7.50
2019-02-12T16:26:28.337Z,7.40
2019-02-12T16:28:58.536Z,7.20
2019-02-12T16:31:28.491Z,7.10
2019-02-12T16:33:59.323Z,6.90
2019-02-12T16:36:29.923Z,6.80
2019-02-12T16:39:04.172Z,6.70
2019-02-12T16:41:31.932Z,6.60
2019-02-12T16:44:03.586Z,6.50
2019-02-12T16:46:33.024Z,6.50
2019-02-12T16:49:04.487Z,6.50
2019-02-12T16:51:33.545Z,6.40
2019-02-12T16:54:03.014Z,6.40
2019-02-12T16:56:32.371Z,6.40
2019-02-12T16:59:03.517Z,6.30
2019-02-12T17:01:32.543Z,6.40
2019-02-12T17:04:01.950Z,6.30
2019-02-12T17:06:31.200Z,6.30
2019-02-12T17:09:00.518Z,6.20
2019-02-12T17:11:29.782Z,6.20
2019-02-12T17:18:38.417Z,6.10
2019-02-12T17:21:09.348Z,6.00
2019-02-12T17:23:43.427Z,5.90
2019-02-12T17:26:16.513Z,5.90
2019-02-12T17:28:45.302Z,5.90
2019-02-12T17:31:14.979Z,5.80
2019-02-12T17:33:45.026Z,5.80
2019-02-12T17:36:14.344Z,5.80
2019-02-12T17:38:43.534Z,5.70
2019-02-12T17:41:12.819Z,5.70
2019-02-12T17:43:42.276Z,5.60
2019-02-12T17:46:11.779Z,5.60
2019-02-12T17:48:41.304Z,5.60
2019-02-12T17:51:10.767Z,5.60
2019-02-12T17:53:40.318Z,5.60
2019-02-12T17:56:09.966Z,5.70
2019-02-12T17:58:39.382Z,5.70
2019-02-12T18:01:09.150Z,5.70
2019-02-12T18:03:39.532Z,5.70
2019-02-12T18:06:09.065Z,5.70
2019-02-12T18:08:38.438Z,5.70
2019-02-12T18:11:10.642Z,5.70
2019-02-12T18:13:39.432Z,5.60
2019-02-12T18:16:08.754Z,5.70
2019-02-12T18:18:38.474Z,5.60
2019-02-12T18:21:07.940Z,5.60
2019-02-12T18:23:37.339Z,5.60
2019-02-12T18:26:06.674Z,5.60
2019-02-12T18:28:35.974Z,5.60
2019-02-12T18:31:05.142Z,5.60
2019-02-12T18:33:34.604Z,5.60
2019-02-12T18:36:04.118Z,5.60
2019-02-12T18:38:35.346Z,5.60
2019-02-12T18:41:04.682Z,5.50
2019-02-12T18:43:33.986Z,5.40
2019-02-12T18:46:03.426Z,5.40
2019-02-12T18:48:33.338Z,5.40
2019-02-12T18:51:03.292Z,5.30
2019-02-12T18:53:33.114Z,5.30
2019-02-12T18:56:09.382Z,5.30
2019-02-12T18:58:40.138Z,5.20
2019-02-12T19:01:09.506Z,5.20
2019-02-12T19:03:38.969Z,5.20
2019-02-12T19:06:08.285Z,5.40
2019-02-12T19:08:37.674Z,5.40
2019-02-12T19:11:07.503Z,5.30
2019-02-12T19:13:36.916Z,5.20
2019-02-12T19:16:06.303Z,5.10
2019-02-12T19:18:35.560Z,5.10
2019-02-12T19:21:05.102Z,4.90
2019-02-12T19:23:34.322Z,4.90
2019-02-12T19:26:05.172Z,4.80
2019-02-12T19:28:36.144Z,4.80
2019-02-12T19:31:05.469Z,4.70
2019-02-12T19:33:35.095Z,4.70
2019-02-12T19:36:04.600Z,4.70
2019-02-12T19:38:34.124Z,4.70
2019-02-12T19:41:03.494Z,4.70
2019-02-12T19:43:32.897Z,4.60
2019-02-12T19:46:03.486Z,4.60
2019-02-12T19:48:32.938Z,4.60
2019-02-12T19:51:02.610Z,4.60
2019-02-12T19:53:31.858Z,4.60
2019-02-12T19:56:01.194Z,4.60
2019-02-12T19:58:30.582Z,4.60
2019-02-12T20:00:59.830Z,4.60
2019-02-12T20:03:29.186Z,4.60
2019-02-12T20:05:58.684Z,4.60
2019-02-12T20:08:32.678Z,4.60
2019-02-12T20:11:01.986Z,4.50
2019-02-12T20:13:31.263Z,4.50
2019-02-12T20:16:00.674Z,4.40
2019-02-12T20:18:30.430Z,4.40
2019-02-12T20:20:59.645Z,4.30
2019-02-12T20:23:28.803Z,4.30
2019-02-12T20:25:58.484Z,4.30
2019-02-12T20:28:31.746Z,4.30
2019-02-12T20:31:02.902Z,4.30
2019-02-12T20:33:35.419Z,4.30
2019-02-12T20:36:04.975Z,4.20
2019-02-12T20:38:35.126Z,4.20
2019-02-12T20:41:04.493Z,4.10
2019-02-12T20:43:33.786Z,4.10
2019-02-12T20:46:05.408Z,4.00
2019-02-12T20:48:34.756Z,4.00
2019-02-12T20:51:04.073Z,4.00
2019-02-12T20:53:33.465Z,4.00
2019-02-12T20:56:02.863Z,4.10
2019-02-12T20:58:32.268Z,4.00
2019-02-12T21:01:02.842Z,3.90
2019-02-12T21:03:32.296Z,3.80
2019-02-12T21:06:03.665Z,3.90
2019-02-12T21:08:33.594Z,3.80
2019-02-12T21:11:02.902Z,3.80
2019-02-12T21:13:33.642Z,3.80
2019-02-12T21:16:03.459Z,3.80
2019-02-12T21:18:33.337Z,3.80
2019-02-12T21:21:15.529Z,3.80
2019-02-12T21:23:45.116Z,3.70
2019-02-12T21:26:14.556Z,3.60
2019-02-12T21:28:46.022Z,3.50
2019-02-12T21:31:22.516Z,3.40
2019-02-12T21:33:50.509Z,3.30
2019-02-12T21:36:19.840Z,3.30
2019-02-12T21:38:49.140Z,3.20
2019-02-12T21:41:18.432Z,3.20
2019-02-12T21:43:50.274Z,3.10
2019-02-12T21:46:19.560Z,3.10
2019-02-12T21:48:48.903Z,3.10
2019-02-12T21:51:18.226Z,3.00
2019-02-12T21:53:47.571Z,3.10
2019-02-12T21:56:16.808Z,3.10
2019-02-12T21:58:45.958Z,3.20
2019-02-12T22:01:17.139Z,3.20
2019-02-12T22:03:46.214Z,3.10
2019-02-12T22:06:15.495Z,3.10
2019-02-12T22:08:44.622Z,3.10
2019-02-12T22:11:13.775Z,3.10
2019-02-12T22:13:43.008Z,3.20
2019-02-12T22:16:12.980Z,3.20
2019-02-12T22:18:42.214Z,3.20
2019-02-12T22:21:11.521Z,3.20
2019-02-12T22:23:40.774Z,3.30
2019-02-12T22:26:10.043Z,3.30
2019-02-12T22:28:39.400Z,3.20
2019-02-12T22:31:08.669Z,3.30
2019-02-12T22:33:37.841Z,3.20
2019-02-12T22:36:07.093Z,3.10
2019-02-12T22:38:36.254Z,3.10
2019-02-12T22:41:05.429Z,3.00
2019-02-12T22:43:34.786Z,2.80
2019-02-12T22:46:04.138Z,2.80
2019-02-12T22:48:33.414Z,2.80
2019-02-12T22:51:04.706Z,2.80
2019-02-12T22:53:33.915Z,2.80
2019-02-12T22:56:03.361Z,2.80
2019-02-12T22:58:33.103Z,2.80
2019-02-12T23:01:09.241Z,2.80
2019-02-12T23:03:38.615Z,2.80
2019-02-12T23:06:07.967Z,2.90
2019-02-12T23:08:37.424Z,2.90
2019-02-12T23:11:06.833Z,2.80
2019-02-12T23:13:36.050Z,2.70
2019-02-12T23:16:05.359Z,2.70
2019-02-12T23:18:34.805Z,2.70
2019-02-12T23:21:04.243Z,2.70
2019-02-12T23:23:33.455Z,2.70
2019-02-12T23:26:02.621Z,2.80
2019-02-12T23:28:32.191Z,2.80
2019-02-12T23:31:01.578Z,2.80
2019-02-12T23:33:30.869Z,2.80
2019-02-12T23:36:00.392Z,2.80
2019-02-12T23:38:30.747Z,2.80
2019-02-12T23:40:59.958Z,2.70
2019-02-12T23:43:31.823Z,2.80
2019-02-12T23:46:01.422Z,2.70
2019-02-12T23:48:33.593Z,2.70
2019-02-12T23:51:03.853Z,2.70
2019-02-12T23:53:33.229Z,2.70
2019-02-12T23:56:02.535Z,2.60
2019-02-12T23:58:31.756Z,2.60
